sensor_id;sensor_type;location;lat;lon;timestamp;pressure;altitude;pressure_sealevel;temperature;humidity
77299;BME280;66361;52.034;20.656;2023-07-08T00:02:48;100441.78;;;11.09;100.00
77299;BME280;66361;52.034;20.656;2023-07-08T00:06:51;100442.25;;;11.02;100.00
77299;BME280;66361;52.034;20.656;2023-07-08T00:10:55;100443.56;;;10.95;100.00
77299;BME280;66361;52.034;20.656;2023-07-08T00:14:58;100441.31;;;10.89;100.00
77299;BME280;66361;52.034;20.656;2023-07-08T00:19:08;100439.19;;;10.80;100.00
77299;BME280;66361;52.034;20.656;2023-07-08T00:23:11;100445.41;;;10.79;100.00
77299;BME280;66361;52.034;20.656;2023-07-08T00:27:15;100446.38;;;10.78;100.00
77299;BME280;66361;52.034;20.656;2023-07-08T00:31:18;100443.31;;;10.69;100.00
77299;BME280;66361;52.034;20.656;2023-07-08T00:35:30;100442.91;;;10.61;100.00
77299;BME280;66361;52.034;20.656;2023-07-08T00:39:37;100451.03;;;10.58;100.00
77299;BME280;66361;52.034;20.656;2023-07-08T00:43:43;100450.34;;;10.55;100.00
77299;BME280;66361;52.034;20.656;2023-07-08T00:47:47;100446.19;;;10.51;100.00
77299;BME280;66361;52.034;20.656;2023-07-08T00:51:53;100449.56;;;10.53;100.00
77299;BME280;66361;52.034;20.656;2023-07-08T00:56:00;100443.72;;;10.48;100.00
77299;BME280;66361;52.034;20.656;2023-07-08T01:00:06;100439.47;;;10.45;100.00
77299;BME280;66361;52.034;20.656;2023-07-08T01:04:14;100440.41;;;10.44;100.00
77299;BME280;66361;52.034;20.656;2023-07-08T01:08:20;100439.81;;;10.39;100.00
77299;BME280;66361;52.034;20.656;2023-07-08T01:12:32;100438.22;;;10.37;100.00
77299;BME280;66361;52.034;20.656;2023-07-08T01:16:37;100445.47;;;10.33;100.00
77299;BME280;66361;52.034;20.656;2023-07-08T01:20:40;100442.16;;;10.30;100.00
77299;BME280;66361;52.034;20.656;2023-07-08T01:24:46;100439.75;;;10.25;100.00
77299;BME280;66361;52.034;20.656;2023-07-08T01:28:52;100439.84;;;10.23;100.00
77299;BME280;66361;52.034;20.656;2023-07-08T01:32:57;100431.25;;;10.20;100.00
77299;BME280;66361;52.034;20.656;2023-07-08T01:37:04;100440.94;;;10.19;100.00
77299;BME280;66361;52.034;20.656;2023-07-08T01:41:14;100443.44;;;10.07;100.00
77299;BME280;66361;52.034;20.656;2023-07-08T01:45:19;100440.88;;;10.05;100.00
77299;BME280;66361;52.034;20.656;2023-07-08T01:49:34;100441.38;;;9.96;100.00
77299;BME280;66361;52.034;20.656;2023-07-08T01:53:41;100443.44;;;9.91;100.00
77299;BME280;66361;52.034;20.656;2023-07-08T01:57:45;100440.97;;;9.88;100.00
77299;BME280;66361;52.034;20.656;2023-07-08T02:01:48;100433.16;;;9.87;100.00
77299;BME280;66361;52.034;20.656;2023-07-08T02:05:56;100430.94;;;9.79;100.00
77299;BME280;66361;52.034;20.656;2023-07-08T02:10:00;100434.25;;;9.83;100.00
77299;BME280;66361;52.034;20.656;2023-07-08T02:14:04;100429.91;;;9.82;100.00
77299;BME280;66361;52.034;20.656;2023-07-08T02:18:09;100431.19;;;9.74;100.00
77299;BME280;66361;52.034;20.656;2023-07-08T02:22:12;100424.38;;;9.70;100.00
77299;BME280;66361;52.034;20.656;2023-07-08T02:26:16;100428.03;;;9.68;100.00
77299;BME280;66361;52.034;20.656;2023-07-08T02:30:20;100428.09;;;9.66;100.00
77299;BME280;66361;52.034;20.656;2023-07-08T02:34:23;100426.75;;;9.59;100.00
77299;BME280;66361;52.034;20.656;2023-07-08T02:38:27;100431.25;;;9.57;100.00
77299;BME280;66361;52.034;20.656;2023-07-08T02:42:30;100424.97;;;9.60;100.00
77299;BME280;66361;52.034;20.656;2023-07-08T02:46:34;100426.44;;;9.65;100.00
77299;BME280;66361;52.034;20.656;2023-07-08T02:50:37;100426.94;;;9.72;100.00
77299;BME280;66361;52.034;20.656;2023-07-08T02:54:40;100422.16;;;9.79;100.00
77299;BME280;66361;52.034;20.656;2023-07-08T02:58:43;100426.25;;;9.84;100.00
77299;BME280;66361;52.034;20.656;2023-07-08T03:02:48;100425.91;;;9.90;100.00
77299;BME280;66361;52.034;20.656;2023-07-08T03:06:51;100429.22;;;9.94;100.00
77299;BME280;66361;52.034;20.656;2023-07-08T03:10:56;100430.84;;;9.96;100.00
77299;BME280;66361;52.034;20.656;2023-07-08T03:15:03;100430.34;;;10.05;100.00
77299;BME280;66361;52.034;20.656;2023-07-08T03:19:08;100442.22;;;10.12;100.00
77299;BME280;66361;52.034;20.656;2023-07-08T03:23:16;100440.44;;;10.29;100.00
77299;BME280;66361;52.034;20.656;2023-07-08T03:27:20;100435.47;;;10.38;100.00
77299;BME280;66361;52.034;20.656;2023-07-08T03:31:24;100429.56;;;10.49;100.00
77299;BME280;66361;52.034;20.656;2023-07-08T03:35:28;100436.59;;;10.64;100.00
77299;BME280;66361;52.034;20.656;2023-07-08T03:39:31;100435.63;;;10.81;100.00
77299;BME280;66361;52.034;20.656;2023-07-08T03:43:34;100442.53;;;10.97;100.00
77299;BME280;66361;52.034;20.656;2023-07-08T03:47:37;100443.94;;;11.18;100.00
77299;BME280;66361;52.034;20.656;2023-07-08T03:52:02;100441.09;;;11.36;100.00
77299;BME280;66361;52.034;20.656;2023-07-08T03:56:07;100440.72;;;11.56;100.00
77299;BME280;66361;52.034;20.656;2023-07-08T04:00:12;100443.81;;;11.91;98.69
77299;BME280;66361;52.034;20.656;2023-07-08T04:04:15;100446.16;;;12.22;97.21
77299;BME280;66361;52.034;20.656;2023-07-08T04:08:19;100444.16;;;12.52;95.16
77299;BME280;66361;52.034;20.656;2023-07-08T04:12:22;100441.19;;;12.84;93.86
77299;BME280;66361;52.034;20.656;2023-07-08T04:16:30;100432.75;;;13.17;92.31
77299;BME280;66361;52.034;20.656;2023-07-08T04:20:34;100432.41;;;13.59;90.38
77299;BME280;66361;52.034;20.656;2023-07-08T04:24:38;100430.72;;;14.89;84.59
77299;BME280;66361;52.034;20.656;2023-07-08T04:28:42;100439.25;;;18.03;70.41
77299;BME280;66361;52.034;20.656;2023-07-08T04:32:45;100437.91;;;20.96;58.04
77299;BME280;66361;52.034;20.656;2023-07-08T04:36:48;100443.31;;;23.22;51.72
77299;BME280;66361;52.034;20.656;2023-07-08T04:40:53;100441.41;;;25.08;45.73
77299;BME280;66361;52.034;20.656;2023-07-08T04:44:56;100443.84;;;26.50;41.53
77299;BME280;66361;52.034;20.656;2023-07-08T04:48:59;100436.31;;;27.30;39.81
77299;BME280;66361;52.034;20.656;2023-07-08T04:53:02;100437.31;;;28.32;38.12
77299;BME280;66361;52.034;20.656;2023-07-08T04:57:07;100441.66;;;29.20;37.28
77299;BME280;66361;52.034;20.656;2023-07-08T05:01:10;100443.69;;;29.77;34.96
77299;BME280;66361;52.034;20.656;2023-07-08T05:05:13;100435.09;;;30.69;33.22
77299;BME280;66361;52.034;20.656;2023-07-08T05:09:16;100447.03;;;31.31;32.04
77299;BME280;66361;52.034;20.656;2023-07-08T05:13:21;100439.66;;;32.47;28.76
77299;BME280;66361;52.034;20.656;2023-07-08T05:17:24;100454.63;;;32.45;30.03
77299;BME280;66361;52.034;20.656;2023-07-08T05:21:29;100449.59;;;32.60;30.54
77299;BME280;66361;52.034;20.656;2023-07-08T05:25:35;100451.94;;;32.86;29.95
77299;BME280;66361;52.034;20.656;2023-07-08T05:29:39;100443.09;;;33.84;27.52
77299;BME280;66361;52.034;20.656;2023-07-08T05:33:42;100440.41;;;34.52;27.29
77299;BME280;66361;52.034;20.656;2023-07-08T05:37:45;100448.28;;;35.22;25.93
77299;BME280;66361;52.034;20.656;2023-07-08T05:41:50;100453.06;;;34.98;25.57
77299;BME280;66361;52.034;20.656;2023-07-08T05:45:58;100451.13;;;35.82;24.38
77299;BME280;66361;52.034;20.656;2023-07-08T05:50:13;100447.31;;;36.05;23.48
77299;BME280;66361;52.034;20.656;2023-07-08T05:54:16;100442.06;;;36.47;23.46
77299;BME280;66361;52.034;20.656;2023-07-08T05:58:19;100445.09;;;36.23;22.96
77299;BME280;66361;52.034;20.656;2023-07-08T06:02:29;100441.00;;;37.06;22.30
77299;BME280;66361;52.034;20.656;2023-07-08T06:06:34;100443.84;;;35.92;22.60
77299;BME280;66361;52.034;20.656;2023-07-08T06:10:41;100433.34;;;37.50;20.79
77299;BME280;66361;52.034;20.656;2023-07-08T06:14:45;100437.88;;;37.29;22.64
77299;BME280;66361;52.034;20.656;2023-07-08T06:18:50;100437.41;;;37.79;22.42
77299;BME280;66361;52.034;20.656;2023-07-08T06:22:52;100437.41;;;38.42;19.52
77299;BME280;66361;52.034;20.656;2023-07-08T06:26:55;100429.06;;;38.21;19.44
77299;BME280;66361;52.034;20.656;2023-07-08T06:30:59;100425.25;;;38.33;19.14
77299;BME280;66361;52.034;20.656;2023-07-08T06:35:05;100428.09;;;39.64;17.71
77299;BME280;66361;52.034;20.656;2023-07-08T06:39:08;100433.59;;;38.53;18.84
77299;BME280;66361;52.034;20.656;2023-07-08T06:43:13;100435.28;;;38.84;18.20
77299;BME280;66361;52.034;20.656;2023-07-08T06:47:17;100433.38;;;38.90;18.55
77299;BME280;66361;52.034;20.656;2023-07-08T06:51:24;100425.09;;;39.50;18.25
77299;BME280;66361;52.034;20.656;2023-07-08T06:55:28;100419.00;;;39.38;16.69
77299;BME280;66361;52.034;20.656;2023-07-08T06:59:32;100434.50;;;40.24;17.29
77299;BME280;66361;52.034;20.656;2023-07-08T07:03:35;100431.84;;;40.52;16.60
77299;BME280;66361;52.034;20.656;2023-07-08T07:07:40;100425.63;;;39.52;15.23
77299;BME280;66361;52.034;20.656;2023-07-08T07:11:43;100421.09;;;38.30;16.48
77299;BME280;66361;52.034;20.656;2023-07-08T07:15:48;100414.56;;;39.37;16.57
77299;BME280;66361;52.034;20.656;2023-07-08T07:19:53;100414.81;;;38.50;16.51
77299;BME280;66361;52.034;20.656;2023-07-08T07:23:58;100404.53;;;39.82;15.51
77299;BME280;66361;52.034;20.656;2023-07-08T07:28:01;100411.81;;;38.61;17.71
77299;BME280;66361;52.034;20.656;2023-07-08T07:32:05;100415.97;;;39.45;16.71
77299;BME280;66361;52.034;20.656;2023-07-08T07:36:10;100413.09;;;39.90;16.57
77299;BME280;66361;52.034;20.656;2023-07-08T07:40:14;100414.84;;;39.51;18.00
77299;BME280;66361;52.034;20.656;2023-07-08T07:44:20;100416.72;;;38.44;17.61
77299;BME280;66361;52.034;20.656;2023-07-08T07:48:23;100415.72;;;39.11;16.72
77299;BME280;66361;52.034;20.656;2023-07-08T07:52:27;100421.59;;;40.04;16.52
77299;BME280;66361;52.034;20.656;2023-07-08T07:56:32;100410.19;;;39.41;16.08
77299;BME280;66361;52.034;20.656;2023-07-08T08:00:38;100417.28;;;39.67;17.02
77299;BME280;66361;52.034;20.656;2023-07-08T08:04:40;100409.63;;;38.89;15.97
77299;BME280;66361;52.034;20.656;2023-07-08T08:08:44;100407.53;;;38.13;15.77
77299;BME280;66361;52.034;20.656;2023-07-08T08:12:48;100408.88;;;37.54;16.57
77299;BME280;66361;52.034;20.656;2023-07-08T08:16:56;100408.50;;;38.64;15.43
77299;BME280;66361;52.034;20.656;2023-07-08T08:20:59;100403.56;;;39.22;17.76
77299;BME280;66361;52.034;20.656;2023-07-08T08:25:03;100408.53;;;37.97;17.82
77299;BME280;66361;52.034;20.656;2023-07-08T08:29:08;100419.84;;;39.03;16.83
77299;BME280;66361;52.034;20.656;2023-07-08T08:33:11;100426.75;;;37.98;16.47
77299;BME280;66361;52.034;20.656;2023-07-08T08:37:16;100426.16;;;37.91;17.59
77299;BME280;66361;52.034;20.656;2023-07-08T08:41:22;100417.09;;;38.83;15.85
77299;BME280;66361;52.034;20.656;2023-07-08T08:45:35;100409.53;;;37.71;17.09
77299;BME280;66361;52.034;20.656;2023-07-08T08:49:45;100403.50;;;37.79;16.99
77299;BME280;66361;52.034;20.656;2023-07-08T08:53:52;100407.69;;;38.79;16.72
77299;BME280;66361;52.034;20.656;2023-07-08T08:58:06;100399.97;;;39.11;16.16
77299;BME280;66361;52.034;20.656;2023-07-08T09:02:30;100410.09;;;38.40;15.75
77299;BME280;66361;52.034;20.656;2023-07-08T09:06:37;100426.44;;;38.57;15.32
77299;BME280;66361;52.034;20.656;2023-07-08T09:10:45;100413.25;;;36.27;17.68
77299;BME280;66361;52.034;20.656;2023-07-08T09:14:50;100408.22;;;37.37;19.14
77299;BME280;66361;52.034;20.656;2023-07-08T09:18:58;100412.91;;;38.55;17.23
77299;BME280;66361;52.034;20.656;2023-07-08T09:23:11;100411.22;;;37.77;16.49
77299;BME280;66361;52.034;20.656;2023-07-08T09:27:18;100419.53;;;37.45;18.16
77299;BME280;66361;52.034;20.656;2023-07-08T09:31:23;100423.63;;;36.74;19.58
77299;BME280;66361;52.034;20.656;2023-07-08T09:35:40;100401.47;;;36.32;20.40
77299;BME280;66361;52.034;20.656;2023-07-08T09:39:44;100397.75;;;35.56;19.77
77299;BME280;66361;52.034;20.656;2023-07-08T09:43:47;100401.19;;;34.63;19.71
77299;BME280;66361;52.034;20.656;2023-07-08T09:47:53;100396.06;;;32.94;21.92
77299;BME280;66361;52.034;20.656;2023-07-08T09:51:58;100394.19;;;31.68;23.93
77299;BME280;66361;52.034;20.656;2023-07-08T09:56:03;100396.94;;;31.50;24.65
77299;BME280;66361;52.034;20.656;2023-07-08T10:00:08;100391.09;;;32.31;24.63
77299;BME280;66361;52.034;20.656;2023-07-08T10:04:13;100378.25;;;33.38;22.51
77299;BME280;66361;52.034;20.656;2023-07-08T10:08:19;100377.97;;;34.71;21.47
77299;BME280;66361;52.034;20.656;2023-07-08T10:12:24;100380.56;;;34.32;20.55
77299;BME280;66361;52.034;20.656;2023-07-08T10:16:29;100375.44;;;34.81;20.31
77299;BME280;66361;52.034;20.656;2023-07-08T10:20:41;100385.66;;;34.57;22.06
77299;BME280;66361;52.034;20.656;2023-07-08T10:25:09;100372.50;;;34.87;23.74
77299;BME280;66361;52.034;20.656;2023-07-08T10:29:23;100376.88;;;34.27;21.62
77299;BME280;66361;52.034;20.656;2023-07-08T10:33:42;100371.41;;;32.59;22.58
77299;BME280;66361;52.034;20.656;2023-07-08T10:38:03;100373.53;;;31.18;24.10
77299;BME280;66361;52.034;20.656;2023-07-08T10:42:22;100360.75;;;32.51;23.46
77299;BME280;66361;52.034;20.656;2023-07-08T10:46:44;100361.69;;;31.06;24.62
77299;BME280;66361;52.034;20.656;2023-07-08T10:50:55;100351.56;;;30.25;26.69
77299;BME280;66361;52.034;20.656;2023-07-08T10:55:13;100350.97;;;29.66;28.23
77299;BME280;66361;52.034;20.656;2023-07-08T10:59:40;100344.72;;;31.22;26.53
77299;BME280;66361;52.034;20.656;2023-07-08T11:04:07;100350.91;;;31.72;25.08
77299;BME280;66361;52.034;20.656;2023-07-08T11:08:18;100339.91;;;32.27;24.64
77299;BME280;66361;52.034;20.656;2023-07-08T11:12:28;100330.91;;;31.60;24.73
77299;BME280;66361;52.034;20.656;2023-07-08T11:16:39;100331.63;;;32.75;22.58
77299;BME280;66361;52.034;20.656;2023-07-08T11:20:54;100324.78;;;32.54;24.34
77299;BME280;66361;52.034;20.656;2023-07-08T11:24:59;100339.25;;;31.47;24.28
77299;BME280;66361;52.034;20.656;2023-07-08T11:29:13;100333.44;;;31.91;25.81
77299;BME280;66361;52.034;20.656;2023-07-08T11:33:21;100318.94;;;32.50;22.41
77299;BME280;66361;52.034;20.656;2023-07-08T11:37:28;100318.88;;;32.15;23.65
77299;BME280;66361;52.034;20.656;2023-07-08T11:41:32;100319.06;;;32.44;24.44
77299;BME280;66361;52.034;20.656;2023-07-08T11:45:37;100328.91;;;33.09;22.81
77299;BME280;66361;52.034;20.656;2023-07-08T11:49:46;100319.22;;;33.53;22.57
77299;BME280;66361;52.034;20.656;2023-07-08T11:53:50;100314.88;;;33.18;22.12
77299;BME280;66361;52.034;20.656;2023-07-08T11:58:01;100313.31;;;32.75;22.61
77299;BME280;66361;52.034;20.656;2023-07-08T12:02:12;100307.38;;;32.78;22.55
77299;BME280;66361;52.034;20.656;2023-07-08T12:06:46;100295.59;;;32.89;23.22
77299;BME280;66361;52.034;20.656;2023-07-08T12:10:51;100289.88;;;33.37;22.62
77299;BME280;66361;52.034;20.656;2023-07-08T12:15:04;100302.53;;;33.67;21.79
77299;BME280;66361;52.034;20.656;2023-07-08T12:19:11;100294.28;;;33.03;22.52
77299;BME280;66361;52.034;20.656;2023-07-08T12:23:21;100282.75;;;33.25;23.00
77299;BME280;66361;52.034;20.656;2023-07-08T12:27:25;100290.13;;;33.24;21.19
77299;BME280;66361;52.034;20.656;2023-07-08T12:31:29;100286.59;;;32.36;23.57
77299;BME280;66361;52.034;20.656;2023-07-08T12:35:35;100279.88;;;31.60;23.65
77299;BME280;66361;52.034;20.656;2023-07-08T12:39:39;100281.41;;;31.20;23.18
77299;BME280;66361;52.034;20.656;2023-07-08T12:43:43;100272.88;;;32.12;22.18
77299;BME280;66361;52.034;20.656;2023-07-08T12:47:48;100269.28;;;31.71;22.12
77299;BME280;66361;52.034;20.656;2023-07-08T12:51:51;100274.50;;;31.72;23.63
77299;BME280;66361;52.034;20.656;2023-07-08T12:55:58;100265.78;;;31.27;23.04
77299;BME280;66361;52.034;20.656;2023-07-08T13:00:06;100261.09;;;30.98;23.82
77299;BME280;66361;52.034;20.656;2023-07-08T13:04:14;100264.44;;;31.54;24.86
77299;BME280;66361;52.034;20.656;2023-07-08T13:08:22;100250.50;;;31.62;23.96
77299;BME280;66361;52.034;20.656;2023-07-08T13:12:27;100251.75;;;31.78;22.90
77299;BME280;66361;52.034;20.656;2023-07-08T13:16:32;100232.13;;;31.69;23.72
77299;BME280;66361;52.034;20.656;2023-07-08T13:20:36;100240.63;;;30.46;23.58
77299;BME280;66361;52.034;20.656;2023-07-08T13:24:39;100246.00;;;30.21;23.88
77299;BME280;66361;52.034;20.656;2023-07-08T13:28:45;100243.03;;;30.79;24.17
77299;BME280;66361;52.034;20.656;2023-07-08T13:32:48;100244.44;;;31.06;23.64
77299;BME280;66361;52.034;20.656;2023-07-08T13:36:52;100238.38;;;31.04;22.72
77299;BME280;66361;52.034;20.656;2023-07-08T13:41:04;100240.72;;;31.37;25.39
77299;BME280;66361;52.034;20.656;2023-07-08T13:45:21;100243.50;;;31.30;23.02
77299;BME280;66361;52.034;20.656;2023-07-08T13:49:29;100211.47;;;31.07;22.74
77299;BME280;66361;52.034;20.656;2023-07-08T13:53:43;100230.72;;;31.31;23.78
77299;BME280;66361;52.034;20.656;2023-07-08T13:57:57;100220.25;;;30.48;23.55
77299;BME280;66361;52.034;20.656;2023-07-08T14:02:14;100214.50;;;30.38;23.91
77299;BME280;66361;52.034;20.656;2023-07-08T14:06:19;100210.47;;;30.41;25.43
77299;BME280;66361;52.034;20.656;2023-07-08T14:10:23;100221.88;;;30.31;24.40
77299;BME280;66361;52.034;20.656;2023-07-08T14:14:26;100221.56;;;30.14;24.58
77299;BME280;66361;52.034;20.656;2023-07-08T14:18:31;100210.28;;;29.79;24.99
77299;BME280;66361;52.034;20.656;2023-07-08T14:22:34;100214.69;;;29.80;24.87
77299;BME280;66361;52.034;20.656;2023-07-08T14:26:42;100203.66;;;29.69;24.79
77299;BME280;66361;52.034;20.656;2023-07-08T14:30:47;100203.94;;;29.54;24.56
77299;BME280;66361;52.034;20.656;2023-07-08T14:34:54;100201.09;;;29.36;26.03
77299;BME280;66361;52.034;20.656;2023-07-08T14:39:00;100195.72;;;29.61;25.69
77299;BME280;66361;52.034;20.656;2023-07-08T14:43:06;100189.88;;;29.57;25.70
77299;BME280;66361;52.034;20.656;2023-07-08T14:47:11;100176.84;;;29.34;25.51
77299;BME280;66361;52.034;20.656;2023-07-08T14:51:16;100177.19;;;29.51;24.68
77299;BME280;66361;52.034;20.656;2023-07-08T14:55:20;100171.94;;;29.50;24.92
77299;BME280;66361;52.034;20.656;2023-07-08T14:59:25;100175.59;;;29.75;25.54
77299;BME280;66361;52.034;20.656;2023-07-08T15:03:29;100174.00;;;29.92;24.52
77299;BME280;66361;52.034;20.656;2023-07-08T15:07:34;100163.34;;;29.91;26.74
77299;BME280;66361;52.034;20.656;2023-07-08T15:11:37;100173.88;;;29.80;26.37
77299;BME280;66361;52.034;20.656;2023-07-08T15:15:40;100166.72;;;29.86;26.18
77299;BME280;66361;52.034;20.656;2023-07-08T15:19:44;100158.72;;;29.91;25.77
77299;BME280;66361;52.034;20.656;2023-07-08T15:23:49;100155.59;;;29.56;24.66
77299;BME280;66361;52.034;20.656;2023-07-08T15:27:53;100152.06;;;29.05;26.12
77299;BME280;66361;52.034;20.656;2023-07-08T15:31:57;100162.69;;;28.49;27.91
77299;BME280;66361;52.034;20.656;2023-07-08T15:36:00;100152.03;;;28.34;28.46
77299;BME280;66361;52.034;20.656;2023-07-08T15:40:06;100153.28;;;28.18;29.07
77299;BME280;66361;52.034;20.656;2023-07-08T15:44:11;100153.28;;;28.18;27.60
77299;BME280;66361;52.034;20.656;2023-07-08T15:48:16;100149.34;;;28.21;27.65
77299;BME280;66361;52.034;20.656;2023-07-08T15:52:19;100147.03;;;28.24;28.14
77299;BME280;66361;52.034;20.656;2023-07-08T15:56:23;100141.16;;;28.34;26.43
77299;BME280;66361;52.034;20.656;2023-07-08T16:00:30;100148.06;;;28.30;27.38
77299;BME280;66361;52.034;20.656;2023-07-08T16:04:36;100133.47;;;28.24;27.07
77299;BME280;66361;52.034;20.656;2023-07-08T16:08:41;100138.91;;;28.24;28.33
77299;BME280;66361;52.034;20.656;2023-07-08T16:12:46;100136.19;;;28.24;27.71
77299;BME280;66361;52.034;20.656;2023-07-08T16:16:49;100132.84;;;28.16;26.86
77299;BME280;66361;52.034;20.656;2023-07-08T16:20:53;100141.84;;;28.10;27.56
77299;BME280;66361;52.034;20.656;2023-07-08T16:24:56;100130.53;;;28.00;26.92
77299;BME280;66361;52.034;20.656;2023-07-08T16:29:00;100129.06;;;27.77;29.09
77299;BME280;66361;52.034;20.656;2023-07-08T16:33:04;100134.91;;;27.74;28.33
77299;BME280;66361;52.034;20.656;2023-07-08T16:37:09;100132.00;;;27.69;29.60
77299;BME280;66361;52.034;20.656;2023-07-08T16:41:13;100128.22;;;27.64;28.50
77299;BME280;66361;52.034;20.656;2023-07-08T16:45:19;100129.25;;;27.56;28.93
77299;BME280;66361;52.034;20.656;2023-07-08T16:49:24;100125.47;;;27.44;28.46
77299;BME280;66361;52.034;20.656;2023-07-08T16:53:27;100124.63;;;27.30;29.32
77299;BME280;66361;52.034;20.656;2023-07-08T16:57:30;100118.13;;;27.25;29.19
77299;BME280;66361;52.034;20.656;2023-07-08T17:01:35;100122.88;;;27.16;29.32
77299;BME280;66361;52.034;20.656;2023-07-08T17:05:39;100113.91;;;27.09;28.81
77299;BME280;66361;52.034;20.656;2023-07-08T17:09:42;100121.13;;;26.95;29.25
77299;BME280;66361;52.034;20.656;2023-07-08T17:13:51;100116.69;;;26.81;29.87
77299;BME280;66361;52.034;20.656;2023-07-08T17:17:59;100108.13;;;26.71;31.14
77299;BME280;66361;52.034;20.656;2023-07-08T17:22:04;100121.56;;;26.52;32.97
77299;BME280;66361;52.034;20.656;2023-07-08T17:26:08;100122.63;;;26.29;32.96
77299;BME280;66361;52.034;20.656;2023-07-08T17:30:13;100124.56;;;26.08;33.92
77299;BME280;66361;52.034;20.656;2023-07-08T17:34:20;100120.56;;;25.82;34.62
77299;BME280;66361;52.034;20.656;2023-07-08T17:38:42;100120.97;;;25.58;34.99
77299;BME280;66361;52.034;20.656;2023-07-08T17:42:47;100125.22;;;25.46;35.03
77299;BME280;66361;52.034;20.656;2023-07-08T17:46:50;100131.19;;;25.20;36.91
77299;BME280;66361;52.034;20.656;2023-07-08T17:50:55;100120.88;;;24.94;37.46
77299;BME280;66361;52.034;20.656;2023-07-08T17:54:58;100126.59;;;24.70;39.73
77299;BME280;66361;52.034;20.656;2023-07-08T17:59:02;100124.34;;;24.44;38.89
77299;BME280;66361;52.034;20.656;2023-07-08T18:03:08;100127.09;;;24.22;39.92
77299;BME280;66361;52.034;20.656;2023-07-08T18:07:14;100128.38;;;23.96;40.57
77299;BME280;66361;52.034;20.656;2023-07-08T18:11:20;100125.06;;;23.72;46.20
77299;BME280;66361;52.034;20.656;2023-07-08T18:15:25;100125.88;;;23.49;45.00
77299;BME280;66361;52.034;20.656;2023-07-08T18:19:29;100130.41;;;23.26;45.07
77299;BME280;66361;52.034;20.656;2023-07-08T18:23:33;100126.00;;;23.02;46.64
77299;BME280;66361;52.034;20.656;2023-07-08T18:27:37;100122.72;;;22.76;47.40
77299;BME280;66361;52.034;20.656;2023-07-08T18:31:43;100121.16;;;22.51;50.99
77299;BME280;66361;52.034;20.656;2023-07-08T18:35:46;100125.75;;;22.26;49.38
77299;BME280;66361;52.034;20.656;2023-07-08T18:39:51;100125.59;;;22.03;54.76
77299;BME280;66361;52.034;20.656;2023-07-08T18:43:55;100133.69;;;21.79;51.66
77299;BME280;66361;52.034;20.656;2023-07-08T18:47:58;100136.53;;;21.53;52.62
77299;BME280;66361;52.034;20.656;2023-07-08T18:52:02;100130.13;;;21.30;54.42
77299;BME280;66361;52.034;20.656;2023-07-08T18:56:11;100129.38;;;21.04;54.82
77299;BME280;66361;52.034;20.656;2023-07-08T19:00:20;100133.97;;;20.77;57.03
77299;BME280;66361;52.034;20.656;2023-07-08T19:04:24;100136.38;;;20.55;57.46
77299;BME280;66361;52.034;20.656;2023-07-08T19:08:46;100138.13;;;20.38;61.74
77299;BME280;66361;52.034;20.656;2023-07-08T19:12:54;100139.66;;;20.15;61.02
77299;BME280;66361;52.034;20.656;2023-07-08T19:17:01;100149.06;;;19.93;62.86
77299;BME280;66361;52.034;20.656;2023-07-08T19:21:07;100147.22;;;19.76;63.70
77299;BME280;66361;52.034;20.656;2023-07-08T19:25:18;100149.06;;;19.58;62.61
77299;BME280;66361;52.034;20.656;2023-07-08T19:29:22;100148.03;;;19.41;67.15
77299;BME280;66361;52.034;20.656;2023-07-08T19:33:26;100147.34;;;19.21;62.50
77299;BME280;66361;52.034;20.656;2023-07-08T19:37:29;100143.81;;;19.03;63.98
77299;BME280;66361;52.034;20.656;2023-07-08T19:41:34;100150.50;;;18.90;65.08
77299;BME280;66361;52.034;20.656;2023-07-08T19:45:40;100138.91;;;18.71;64.21
77299;BME280;66361;52.034;20.656;2023-07-08T19:49:44;100144.75;;;18.57;64.38
77299;BME280;66361;52.034;20.656;2023-07-08T19:53:48;100147.41;;;18.48;65.90
77299;BME280;66361;52.034;20.656;2023-07-08T19:57:53;100159.44;;;18.34;67.40
77299;BME280;66361;52.034;20.656;2023-07-08T20:01:59;100152.03;;;18.18;69.62
77299;BME280;66361;52.034;20.656;2023-07-08T20:06:10;100156.84;;;18.05;71.26
77299;BME280;66361;52.034;20.656;2023-07-08T20:10:15;100157.84;;;17.85;71.48
77299;BME280;66361;52.034;20.656;2023-07-08T20:14:19;100155.47;;;17.72;69.78
77299;BME280;66361;52.034;20.656;2023-07-08T20:18:27;100160.69;;;17.64;74.54
77299;BME280;66361;52.034;20.656;2023-07-08T20:22:36;100165.69;;;17.48;71.32
77299;BME280;66361;52.034;20.656;2023-07-08T20:26:40;100166.97;;;17.34;71.52
77299;BME280;66361;52.034;20.656;2023-07-08T20:30:45;100163.69;;;17.31;74.83
77299;BME280;66361;52.034;20.656;2023-07-08T20:34:53;100167.78;;;17.16;73.86
77299;BME280;66361;52.034;20.656;2023-07-08T20:38:56;100167.75;;;17.06;72.84
77299;BME280;66361;52.034;20.656;2023-07-08T20:42:59;100175.72;;;16.97;73.08
77299;BME280;66361;52.034;20.656;2023-07-08T20:47:03;100178.50;;;16.85;74.04
77299;BME280;66361;52.034;20.656;2023-07-08T20:51:08;100181.69;;;16.79;76.11
77299;BME280;66361;52.034;20.656;2023-07-08T20:55:12;100177.59;;;16.66;73.92
77299;BME280;66361;52.034;20.656;2023-07-08T20:59:16;100176.44;;;16.59;75.30
77299;BME280;66361;52.034;20.656;2023-07-08T21:03:21;100178.16;;;16.48;73.96
77299;BME280;66361;52.034;20.656;2023-07-08T21:07:26;100177.72;;;16.43;76.29